Time;durP1;ratioP1;P1;durP2;ratioP2;P2;SDS_P1;SDS_P2;PMS_P1;PMS_P2;Temp;Humidity;BMP_temperature;BMP_pressure;BME280_temperature;BME280_humidity;BME280_pressure;Samples;Min_cycle;Max_cycle;Signal;HPM_P1;HPM_P2
2022/01/30 00:00:23;;;;;;;27.58;9.05;;;;;;;7.15;65.88;102435.59;3584030;40;20060;-64
2022/01/30 00:02:51;;;;;;;28.02;7.43;;;;;;;7.37;65.31;102484.16;3587556;40;20048;-63
2022/01/30 00:05:17;;;;;;;30.83;10.15;;;;;;;7.36;65.96;102493.09;3589127;40;20483;-66
2022/01/30 00:07:43;;;;;;;32.45;11.95;;;;;;;7.33;65.82;102496.72;3584314;40;20060;-64
2022/01/30 00:10:12;;;;;;;34.13;9.38;;;;;;;7.32;65.99;102502.97;3582842;40;20048;-65
2022/01/30 00:12:50;;;;;;;30.02;8.65;;;;;;;7.31;65.95;102516.38;3586252;40;20064;-64
2022/01/30 00:15:17;;;;;;;19.00;6.95;;;;;;;7.28;65.53;102511.09;3583414;40;20520;-64
2022/01/30 00:17:50;;;;;;;35.33;7.55;;;;;;;7.25;65.64;102509.38;3586561;40;20143;-64
2022/01/30 00:20:21;;;;;;;36.78;10.80;;;;;;;7.19;65.18;102507.69;3578516;40;20123;-65
2022/01/30 00:22:54;;;;;;;26.85;7.88;;;;;;;7.19;65.80;102506.81;3575557;40;20311;-65
2022/01/30 00:25:31;;;;;;;24.85;7.03;;;;;;;7.17;65.31;102509.53;3581286;40;20056;-65
2022/01/30 00:28:04;;;;;;;28.35;6.95;;;;;;;7.11;65.03;102507.00;3578429;40;20088;-63
2022/01/30 00:30:34;;;;;;;;;;;;;;;7.10;65.39;102510.56;3575687;40;20053;-64
2022/01/30 00:33:02;;;;;;;21.70;6.90;;;;;;;7.06;65.80;102513.34;3576005;40;19959;-63
2022/01/30 00:35:29;;;;;;;30.05;7.50;;;;;;;7.01;65.60;102524.13;3576344;40;20052;-65
2022/01/30 00:37:55;;;;;;;27.50;7.15;;;;;;;6.98;66.16;102530.41;3578662;40;20558;-64
2022/01/30 00:40:21;;;;;;;30.73;6.20;;;;;;;6.91;66.51;102522.53;3576457;40;20124;-64
2022/01/30 00:42:47;;;;;;;23.15;5.75;;;;;;;6.90;66.24;102512.75;3583153;40;20045;-64
2022/01/30 00:45:12;;;;;;;25.15;6.68;;;;;;;6.92;66.10;102521.63;3575964;40;20053;-65
2022/01/30 00:47:38;;;;;;;26.27;6.38;;;;;;;6.92;65.89;102519.84;3575407;40;20052;-64
2022/01/30 00:50:05;;;;;;;30.25;5.82;;;;;;;6.91;66.02;102519.84;3575420;40;20110;-66
2022/01/30 00:52:31;;;;;;;40.08;8.35;;;;;;;6.89;66.34;102525.25;3575378;40;20053;-66
2022/01/30 00:54:56;;;;;;;32.80;7.55;;;;;;;6.85;66.41;102517.28;3578972;40;20060;-65
2022/01/30 00:57:22;;;;;;;24.55;5.05;;;;;;;6.90;66.73;102529.66;3578667;40;20130;-65
2022/01/30 00:59:49;;;;;;;28.73;7.68;;;;;;;6.88;65.96;102527.94;3580046;40;20260;-64
2022/01/30 01:02:16;;;;;;;27.55;6.55;;;;;;;6.86;66.74;102530.66;3576334;40;20052;-65
2022/01/30 01:04:41;;;;;;;25.15;7.75;;;;;;;6.81;66.60;102529.84;3575149;40;20065;-65
2022/01/30 01:07:14;;;;;;;28.73;6.75;;;;;;;6.78;66.87;102537.03;3579755;40;20316;-65
2022/01/30 01:09:40;;;;;;;29.75;9.43;;;;;;;6.72;67.14;102538.94;3575666;40;20060;-64
2022/01/30 01:26:05;;;;;;;33.17;8.65;;;;;;;6.54;68.23;102538.38;3611938;22;20116;-64
2022/01/30 01:28:31;;;;;;;35.50;9.90;;;;;;;6.50;68.31;102546.44;3596261;39;20060;-62
2022/01/30 01:30:57;;;;;;;25.38;5.65;;;;;;;6.50;67.98;102542.88;3599573;39;20051;-62
2022/01/30 01:33:28;;;;;;;23.63;5.90;;;;;;;6.49;68.13;102543.78;3600037;39;20377;-62
2022/01/30 01:35:54;;;;;;;29.67;6.40;;;;;;;6.52;68.29;102559.75;3597390;39;20051;-62
2022/01/30 01:38:20;;;;;;;22.95;5.22;;;;;;;6.51;68.47;102550.00;3601663;39;20063;-62
2022/01/30 01:40:52;;;;;;;24.88;4.68;;;;;;;6.50;67.93;102557.13;3600865;39;20036;-62
2022/01/30 01:43:22;;;;;;;25.08;5.13;;;;;;;6.51;67.80;102560.69;3603004;39;20063;-62
2022/01/30 01:45:51;;;;;;;28.23;4.53;;;;;;;6.45;67.75;102548.31;3602432;39;20059;-62
2022/01/30 01:48:18;;;;;;;20.60;4.00;;;;;;;6.41;68.22;102551.06;3601813;39;20055;-62
2022/01/30 01:50:54;;;;;;;23.35;4.32;;;;;;;6.46;67.82;102562.53;3596382;39;20059;-62
2022/01/30 01:53:25;;;;;;;21.70;4.57;;;;;;;6.41;67.97;102562.63;3596278;39;20048;-62
2022/01/30 01:55:51;;;;;;;29.15;5.15;;;;;;;6.24;67.82;102552.19;3597606;39;20056;-64
2022/01/30 01:58:18;;;;;;;22.63;4.47;;;;;;;6.28;68.39;102564.63;3591733;40;20110;-62
2022/01/30 02:00:44;;;;;;;26.20;5.18;;;;;;;6.24;68.57;102568.22;3602026;39;20069;-62
2022/01/30 02:03:10;;;;;;;24.20;4.38;;;;;;;6.19;69.05;102564.75;3595260;39;20051;-62
2022/01/30 02:05:40;;;;;;;22.35;5.00;;;;;;;6.12;69.24;102568.44;3595217;39;20044;-64
2022/01/30 02:08:26;;;;;;;28.30;4.28;;;;;;;6.06;69.43;102568.53;3595946;39;20039;-62
2022/01/30 02:10:59;;;;;;;24.75;4.53;;;;;;;5.99;69.79;102562.41;3596483;39;20063;-63
2022/01/30 02:24:50;;;;;;;21.90;4.18;;;;;;;5.69;70.80;102537.00;3603952;39;20042;-62
2022/01/30 02:27:22;;;;;;;22.48;4.60;;;;;;;5.68;70.78;102537.03;3602109;39;20119;-62
2022/01/30 02:29:48;;;;;;;23.02;4.78;;;;;;;5.66;70.60;102542.38;3599647;39;20043;-62
2022/01/30 02:32:14;;;;;;;24.92;4.63;;;;;;;5.37;71.17;102505.44;3604211;39;20164;-62
2022/01/30 02:34:40;;;;;;;31.58;5.03;;;;;;;5.64;71.20;102557.50;3601366;39;20087;-64
2022/01/30 02:37:06;;;;;;;25.00;4.85;;;;;;;5.61;71.81;102557.53;3602019;39;20055;-62
2022/01/30 02:39:32;;;;;;;22.73;4.15;;;;;;;5.57;71.43;102559.38;3599786;39;20086;-62
2022/01/30 02:41:58;;;;;;;22.05;4.60;;;;;;;5.46;71.52;102544.44;3604233;39;20056;-62
2022/01/30 02:44:30;;;;;;;28.13;4.82;;;;;;;5.49;72.09;102541.72;3603328;39;20090;-63
2022/01/30 02:47:00;;;;;;;28.92;5.15;;;;;;;5.52;71.64;102552.34;3595662;39;20058;-62
2022/01/30 02:49:40;;;;;;;26.95;4.78;;;;;;;5.50;71.66;102546.16;3594781;39;20056;-62
2022/01/30 02:52:07;;;;;;;21.63;4.65;;;;;;;5.49;71.70;102542.59;3597005;39;20370;-63
2022/01/30 02:54:33;;;;;;;21.73;4.07;;;;;;;5.45;72.21;102537.31;3596529;39;20064;-62
2022/01/30 02:56:59;;;;;;;22.92;3.97;;;;;;;5.47;71.89;102540.84;3599279;39;20051;-63
2022/01/30 02:59:26;;;;;;;20.95;3.80;;;;;;;5.49;71.64;102552.41;3601616;39;20062;-63
2022/01/30 03:01:52;;;;;;;22.60;4.32;;;;;;;5.49;71.82;102549.72;3595394;39;20093;-63
2022/01/30 03:04:18;;;;;;;22.33;4.38;;;;;;;5.51;71.70;102563.91;3595405;39;20060;-62
2022/01/30 03:06:46;;;;;;;21.92;3.80;;;;;;;5.51;71.28;102563.91;3594508;39;20055;-63
2022/01/30 03:09:12;;;;;;;24.83;5.30;;;;;;;5.53;71.08;102578.13;3596408;39;20062;-64
2022/01/30 03:11:39;;;;;;;23.35;4.38;;;;;;;5.23;71.76;102521.63;3594644;39;20055;-63
2022/01/30 03:14:06;;;;;;;26.90;4.90;;;;;;;5.52;71.68;102576.38;3588784;40;20080;-63
2022/01/30 03:16:32;;;;;;;23.58;3.95;;;;;;;5.51;71.38;102580.78;3596811;39;20063;-63
2022/01/30 03:18:59;;;;;;;22.38;4.43;;;;;;;5.37;71.66;102566.75;3603105;39;20494;-63
2022/01/30 03:21:25;;;;;;;20.88;4.22;;;;;;;5.47;71.36;102588.88;3597950;39;20044;-64
2022/01/30 03:23:50;;;;;;;29.25;4.18;;;;;;;5.42;71.95;102593.34;3602973;39;20477;-63
2022/01/30 03:26:16;;;;;;;26.60;4.30;;;;;;;5.39;72.35;102585.38;3604863;39;20151;-64
2022/01/30 03:28:45;;;;;;;19.77;3.72;;;;;;;5.47;72.91;102588.88;3597810;39;20083;-63
2022/01/30 03:31:12;;;;;;;25.83;4.85;;;;;;;5.53;72.60;102596.78;3600030;39;20047;-63
2022/01/30 03:33:39;;;;;;;24.50;4.55;;;;;;;5.59;72.61;102594.03;3599927;39;20046;-63
2022/01/30 03:36:06;;;;;;;24.70;4.85;;;;;;;5.57;72.83;102593.16;3601793;39;20081;-63
2022/01/30 03:38:32;;;;;;;21.60;4.13;;;;;;;5.66;72.80;102606.41;3598829;39;20047;-63
2022/01/30 03:40:58;;;;;;;25.25;4.72;;;;;;;5.72;72.70;102611.66;3600691;39;20120;-63
2022/01/30 03:43:24;;;;;;;25.85;4.75;;;;;;;5.69;73.04;102603.69;3599091;39;20048;-63
2022/01/30 03:45:51;;;;;;;25.73;4.40;;;;;;;5.81;72.82;102627.56;3596667;39;20048;-63
2022/01/30 03:48:17;;;;;;;25.35;4.45;;;;;;;5.87;72.25;102633.69;3601930;39;20055;-63
2022/01/30 03:50:44;;;;;;;28.83;4.70;;;;;;;5.92;72.47;102634.53;3602210;39;20063;-64
2022/01/30 03:53:11;;;;;;;22.08;4.32;;;;;;;5.98;71.95;102637.16;3603456;39;20058;-63
2022/01/30 03:55:38;;;;;;;22.27;4.55;;;;;;;5.98;72.40;102630.03;3596953;39;20054;-63
2022/01/30 03:58:05;;;;;;;26.10;4.43;;;;;;;6.04;72.06;102635.28;3601403;39;20059;-63
2022/01/30 04:00:31;;;;;;;23.85;4.80;;;;;;;6.07;71.10;102626.34;3598443;39;20067;-63
2022/01/30 04:02:57;;;;;;;24.17;4.75;;;;;;;6.12;71.02;102637.84;3602137;39;20059;-63
2022/01/30 04:05:23;;;;;;;27.65;4.38;;;;;;;6.12;71.23;102637.84;3594358;39;20136;-63
2022/01/30 04:07:48;;;;;;;26.08;4.30;;;;;;;6.15;71.43;102637.81;3599499;39;20059;-63
2022/01/30 04:10:15;;;;;;;27.00;5.03;;;;;;;6.17;70.92;102635.97;3596572;39;20137;-63
2022/01/30 04:12:41;;;;;;;25.00;4.25;;;;;;;6.22;71.01;102638.59;3594304;39;20305;-63
2022/01/30 04:15:09;;;;;;;28.92;5.10;;;;;;;6.17;71.02;102630.66;3598759;39;20378;-63
2022/01/30 04:17:35;;;;;;;31.33;5.53;;;;;;;6.15;71.11;102619.13;3595293;39;20493;-63
2022/01/30 04:20:02;;;;;;;21.70;3.83;;;;;;;6.33;70.42;102655.34;3593753;39;20052;-63
2022/01/30 04:22:27;;;;;;;24.88;4.70;;;;;;;6.33;70.29;102644.66;3594146;39;20154;-63
2022/01/30 04:24:53;;;;;;;27.15;4.78;;;;;;;6.38;70.20;102656.16;3597952;39;20063;-63
2022/01/30 04:27:22;;;;;;;23.73;4.80;;;;;;;6.16;70.19;102603.97;3596699;39;20039;-63
2022/01/30 04:29:48;;;;;;;24.80;4.78;;;;;;;6.45;70.04;102652.47;3597985;39;20065;-63
2022/01/30 04:32:15;;;;;;;21.42;4.63;;;;;;;6.46;69.16;102654.25;3602747;39;20054;-63
2022/01/30 04:34:51;;;;;;;27.10;5.00;;;;;;;6.49;69.67;102664.88;3598197;39;20088;-63
2022/01/30 04:37:25;;;;;;;19.95;4.53;;;;;;;6.48;69.42;102647.09;3594374;39;20453;-63
2022/01/30 04:56:52;;;;;;;25.80;4.47;;;;;;;6.62;68.56;102676.25;3600003;39;20064;-63
2022/01/30 04:58:54;;;;;;;28.40;4.50;;;;;;;6.64;68.77;102686.94;3601903;39;20063;-63
2022/01/30 05:01:36;;;;;;;;;;;;;;;6.61;68.35;102679.84;3603117;39;20047;-63
2022/01/30 05:04:21;;;;;;;25.02;4.45;;;;;;;6.57;68.24;102680.81;3599634;39;19928;-63
2022/01/30 05:09:25;;;;;;;22.08;3.90;;;;;;;6.43;67.53;102690.81;3604960;39;20293;-63
2022/01/30 05:11:50;;;;;;;26.27;3.88;;;;;;;6.37;68.47;102690.88;3603869;39;20079;-63
2022/01/30 05:14:20;;;;;;;23.13;4.18;;;;;;;6.30;68.43;102689.22;3604828;39;20413;-63
2022/01/30 05:16:45;;;;;;;27.35;4.18;;;;;;;6.23;68.62;102694.66;3603212;39;20056;-63
2022/01/30 05:19:12;;;;;;;21.85;3.67;;;;;;;6.16;68.19;102692.97;3601501;39;20051;-63
2022/01/30 05:21:39;;;;;;;21.63;4.15;;;;;;;6.11;68.45;102700.16;3595684;39;20054;-63
2022/01/30 05:24:06;;;;;;;27.08;4.13;;;;;;;6.03;68.80;102702.06;3597189;39;20052;-63
2022/01/30 05:26:32;;;;;;;22.30;4.07;;;;;;;5.98;69.10;102698.53;3600186;39;20051;-63
2022/01/30 05:28:58;;;;;;;31.52;4.43;;;;;;;5.92;69.49;102694.13;3600471;39;20052;-63
2022/01/30 05:31:24;;;;;;;27.50;4.40;;;;;;;5.85;69.87;102699.56;3595345;39;20088;-63
2022/01/30 05:33:50;;;;;;;25.48;4.00;;;;;;;5.77;69.81;102688.97;3595586;39;20063;-63
2022/01/30 05:36:18;;;;;;;21.40;3.60;;;;;;;5.73;69.99;102693.47;3598250;39;20378;-63
2022/01/30 05:38:43;;;;;;;23.35;4.03;;;;;;;5.72;70.13;102702.38;3600518;39;20051;-63
2022/01/30 05:41:10;;;;;;;20.20;3.65;;;;;;;5.65;69.94;102691.81;3595633;39;20066;-63
2022/01/30 05:43:37;;;;;;;18.98;3.60;;;;;;;5.63;70.08;102707.81;3595109;39;20117;-63
2022/01/30 05:46:11;;;;;;;22.45;4.22;;;;;;;5.63;69.48;102707.81;3595357;39;20083;-63
2022/01/30 05:48:37;;;;;;;22.35;3.85;;;;;;;5.61;69.98;102714.94;3595883;39;20374;-63
2022/01/30 05:51:03;;;;;;;24.95;4.07;;;;;;;5.40;69.46;102683.19;3595141;39;20083;-63
2022/01/30 05:53:28;;;;;;;19.73;3.33;;;;;;;5.22;69.38;102653.13;3595745;39;20295;-63
2022/01/30 05:55:54;;;;;;;18.20;3.33;;;;;;;5.58;69.33;102720.31;3596195;39;20050;-63
2022/01/30 05:58:20;;;;;;;23.00;4.13;;;;;;;5.59;69.09;102719.44;3597337;39;20044;-63
2022/01/30 06:00:45;;;;;;;19.48;4.50;;;;;;;5.56;69.38;102717.66;3598742;39;21616;-63
2022/01/30 06:03:11;;;;;;;22.75;3.50;;;;;;;5.54;68.89;102718.56;3598487;39;20059;-63
2022/01/30 06:05:38;;;;;;;24.35;5.63;;;;;;;5.55;68.99;102728.34;3596188;39;20055;-63
2022/01/30 06:08:13;;;;;;;19.15;3.58;;;;;;;5.53;69.08;102722.16;3599958;39;20370;-63
2022/01/30 06:10:39;;;;;;;19.80;4.10;;;;;;;5.49;69.01;102726.66;3597633;39;20117;-63
2022/01/30 06:13:05;;;;;;;18.05;4.32;;;;;;;5.48;69.17;102730.19;3602470;39;20298;-63
2022/01/30 06:15:30;;;;;;;19.45;3.85;;;;;;;5.44;68.88;102735.59;3600971;39;20283;-63
2022/01/30 06:17:56;;;;;;;23.85;3.10;;;;;;;5.42;69.23;102732.91;3603488;39;20100;-63
2022/01/30 06:20:21;;;;;;;19.15;3.55;;;;;;;5.41;69.57;102735.63;3602747;39;20047;-63
2022/01/30 06:22:47;;;;;;;26.40;4.32;;;;;;;5.41;69.64;102725.81;3600591;39;20071;-63
2022/01/30 06:25:14;;;;;;;21.58;4.25;;;;;;;5.44;69.61;102727.59;3603173;39;20470;-63
2022/01/30 06:27:40;;;;;;;19.83;3.88;;;;;;;5.35;69.03;102705.44;3601759;39;20078;-63
2022/01/30 06:30:10;;;;;;;20.25;3.35;;;;;;;5.49;68.79;102715.97;3587276;39;20039;-63
2022/01/30 06:32:36;;;;;;;18.77;3.30;;;;;;;5.57;68.49;102710.53;3599754;39;20043;-63
2022/01/30 06:35:02;;;;;;;18.33;3.17;;;;;;;5.72;67.56;102718.38;3599876;39;20123;-63
2022/01/30 06:37:30;;;;;;;16.60;2.95;;;;;;;5.81;67.77;102723.63;3603536;39;20051;-63
2022/01/30 06:39:56;;;;;;;18.45;2.90;;;;;;;5.86;67.63;102723.56;3601898;39;20047;-63
2022/01/30 06:42:22;;;;;;;21.73;3.35;;;;;;;5.89;67.30;102719.97;3603420;39;20392;-63
2022/01/30 06:44:48;;;;;;;17.45;3.70;;;;;;;5.76;66.93;102696.09;3596433;39;20068;-63
2022/01/30 06:47:13;;;;;;;19.20;3.50;;;;;;;6.05;67.06;102737.59;3598870;39;20144;-63
2022/01/30 06:49:39;;;;;;;19.33;2.92;;;;;;;6.08;66.79;102742.91;3599666;39;20062;-63
2022/01/30 06:52:07;;;;;;;17.08;3.30;;;;;;;6.09;66.84;102739.34;3602054;39;20044;-64
2022/01/30 06:54:33;;;;;;;16.42;3.08;;;;;;;5.95;67.39;102722.59;3602094;39;20376;-63
2022/01/30 06:56:58;;;;;;;18.65;3.45;;;;;;;6.12;67.66;102759.75;3601566;39;20047;-63
2022/01/30 06:59:24;;;;;;;20.52;3.80;;;;;;;6.00;67.89;102732.34;3600505;39;20567;-63
2022/01/30 07:01:52;;;;;;;16.70;3.28;;;;;;;6.07;67.71;102746.47;3596478;39;20048;-63
2022/01/30 07:04:18;;;;;;;21.13;3.90;;;;;;;6.04;67.76;102751.84;3603636;39;20136;-63
2022/01/30 07:06:43;;;;;;;29.10;3.70;;;;;;;5.99;67.91;102757.28;3602936;39;20051;-63
2022/01/30 07:09:09;;;;;;;17.98;3.25;;;;;;;5.92;68.32;102757.31;3597777;39;20391;-63
2022/01/30 07:11:35;;;;;;;14.57;2.72;;;;;;;5.86;67.95;102765.38;3595108;39;20291;-63
2022/01/30 07:14:00;;;;;;;22.52;3.60;;;;;;;5.78;68.07;102763.69;3594322;39;20097;-63
2022/01/30 07:16:26;;;;;;;20.73;3.50;;;;;;;5.76;68.29;102768.13;3589613;39;20048;-63
2022/01/30 07:18:51;;;;;;;15.65;3.42;;;;;;;5.70;68.45;102772.66;3596807;39;20063;-63
2022/01/30 07:21:17;;;;;;;19.38;3.38;;;;;;;5.65;68.61;102775.38;3598362;39;20401;-63
2022/01/30 07:23:42;;;;;;;22.42;3.08;;;;;;;5.59;68.33;102771.00;3600232;39;20502;-63
2022/01/30 07:26:10;;;;;;;14.70;3.10;;;;;;;5.60;68.31;102777.22;3601528;39;20382;-63
2022/01/30 07:28:36;;;;;;;25.48;3.42;;;;;;;5.56;68.23;102779.03;3599309;39;20121;-66
2022/01/30 07:31:01;;;;;;;23.30;3.60;;;;;;;5.57;68.07;102779.91;3601808;39;20059;-66
2022/01/30 07:33:27;;;;;;;19.83;3.30;;;;;;;5.53;68.39;102775.50;3602271;39;20115;-65
2022/01/30 07:35:55;;;;;;;18.13;3.42;;;;;;;5.55;68.54;102787.94;3600954;39;20063;-66
2022/01/30 07:38:21;;;;;;;21.40;3.53;;;;;;;5.30;68.25;102747.28;3602211;39;20304;-65
2022/01/30 07:40:48;;;;;;;22.90;3.72;;;;;;;5.54;68.07;102803.94;3601291;39;20632;-65
2022/01/30 07:43:14;;;;;;;19.52;3.92;;;;;;;5.52;68.87;102805.75;3596795;39;20059;-65
2022/01/30 07:45:40;;;;;;;23.15;4.63;;;;;;;5.48;68.77;102810.22;3599609;39;20302;-65
2022/01/30 07:48:05;;;;;;;17.33;3.15;;;;;;;5.47;68.46;102818.25;3600086;39;20057;-66
2022/01/30 07:50:31;;;;;;;22.23;3.88;;;;;;;5.46;68.89;102817.34;3598477;39;20056;-66
2022/01/30 07:52:56;;;;;;;22.50;3.17;;;;;;;5.47;68.92;102823.56;3602517;39;20059;-65
2022/01/30 07:55:22;;;;;;;16.20;3.72;;;;;;;5.47;68.90;102812.91;3600086;39;20405;-65
2022/01/30 07:57:48;;;;;;;18.33;3.40;;;;;;;5.47;68.96;102818.25;3603189;39;20321;-66
2022/01/30 08:00:14;;;;;;;25.67;3.65;;;;;;;5.46;69.04;102806.69;3602246;39;20043;-66
2022/01/30 08:02:40;;;;;;;25.17;3.70;;;;;;;5.47;68.92;102812.91;3600147;39;20379;-65
2022/01/30 08:05:07;;;;;;;13.40;3.22;;;;;;;5.25;68.71;102775.75;3598189;39;20050;-66
2022/01/30 08:07:32;;;;;;;22.77;3.47;;;;;;;5.50;68.51;102813.75;3604597;39;20043;-66
2022/01/30 08:09:59;;;;;;;18.67;4.05;;;;;;;5.52;68.31;102816.44;3601577;39;20123;-66
2022/01/30 08:12:24;;;;;;;20.73;4.05;;;;;;;5.55;68.23;102824.38;3601525;39;20148;-66
2022/01/30 08:14:50;;;;;;;21.77;3.38;;;;;;;5.57;68.53;102814.59;3602717;39;20060;-66
2022/01/30 08:17:21;;;;;;;17.15;3.30;;;;;;;5.59;67.83;102828.81;3594727;39;20052;-65
2022/01/30 08:19:48;;;;;;;19.98;3.38;;;;;;;5.63;68.24;102825.19;3594285;39;20060;-65
2022/01/30 08:22:14;;;;;;;18.90;3.00;;;;;;;5.42;67.32;102778.25;3594649;39;20051;-65
2022/01/30 08:27:01;;;;;;;24.33;3.88;;;;;;;5.94;66.89;102835.63;3628980;39;20127;-65
2022/01/30 08:29:27;;;;;;;17.48;3.08;;;;;;;6.00;66.03;102831.09;3616697;39;20524;-65
2022/01/30 08:31:53;;;;;;;23.73;5.93;;;;;;;6.10;66.53;102825.66;3613011;39;20374;-65
2022/01/30 08:34:18;;;;;;;20.23;5.22;;;;;;;6.15;65.90;102831.81;3618701;39;20438;-66
2022/01/30 08:36:44;;;;;;;19.00;4.05;;;;;;;6.28;66.04;102831.69;3608732;39;20298;-65
2022/01/30 08:39:09;;;;;;;17.73;4.25;;;;;;;6.36;65.46;102830.69;3608577;39;20081;-66
2022/01/30 08:41:35;;;;;;;18.38;3.60;;;;;;;6.40;65.37;102827.97;3611368;39;20058;-66
2022/01/30 08:44:00;;;;;;;23.38;5.00;;;;;;;6.47;65.35;102827.00;3610474;39;20124;-65
2022/01/30 08:46:26;;;;;;;21.95;4.47;;;;;;;6.61;65.01;102834.84;3607035;39;20475;-65
2022/01/30 08:48:52;;;;;;;23.38;4.05;;;;;;;6.71;64.66;102838.25;3605463;39;20319;-65
2022/01/30 08:51:17;;;;;;;18.23;3.50;;;;;;;6.74;64.14;102830.22;3605542;39;20043;-66
2022/01/30 08:53:43;;;;;;;15.68;4.07;;;;;;;6.84;63.82;102833.63;3609828;39;20058;-66
2022/01/30 08:56:08;;;;;;;20.30;3.78;;;;;;;6.88;64.12;102832.69;3610619;39;20047;-65
2022/01/30 08:58:34;;;;;;;19.52;3.83;;;;;;;7.03;63.85;102834.25;3610343;39;20095;-66
2022/01/30 09:01:00;;;;;;;24.65;4.20;;;;;;;7.09;62.86;102829.69;3610924;39;20095;-66
2022/01/30 09:03:25;;;;;;;20.27;3.70;;;;;;;7.12;62.16;102835.00;3610218;39;20039;-67
2022/01/30 09:05:51;;;;;;;21.52;3.85;;;;;;;7.18;62.16;102832.22;3608559;39;20063;-67
2022/01/30 09:08:17;;;;;;;23.98;4.05;;;;;;;7.22;62.02;102844.66;3610391;39;20039;-66
2022/01/30 09:10:42;;;;;;;23.17;3.95;;;;;;;7.27;61.40;102843.72;3609798;39;20271;-66
2022/01/30 09:13:08;;;;;;;20.63;3.80;;;;;;;7.32;61.47;102845.38;3610700;39;20293;-67
2022/01/30 09:15:40;;;;;;;15.77;3.67;;;;;;;7.43;60.80;102850.59;3608577;39;20091;-67
2022/01/30 09:18:09;;;;;;;17.27;3.13;;;;;;;7.41;60.97;102857.75;3607399;39;20475;-65
2022/01/30 09:20:39;;;;;;;23.02;3.80;;;;;;;7.43;61.03;102864.84;3610412;39;20256;-65
2022/01/30 09:23:06;;;;;;;20.98;4.93;;;;;;;7.65;60.21;102877.88;3607189;39;20047;-65
2022/01/30 09:25:33;;;;;;;21.13;3.67;;;;;;;7.76;59.67;102875.00;3611682;39;20266;-65
2022/01/30 09:27:58;;;;;;;25.83;4.70;;;;;;;7.90;59.63;102870.31;3610804;39;20040;-65
2022/01/30 09:30:24;;;;;;;23.27;4.05;;;;;;;8.16;59.76;102861.78;3611576;39;20107;-65
2022/01/30 09:32:49;;;;;;;20.23;3.90;;;;;;;8.32;58.40;102846.28;3607679;39;20079;-67
2022/01/30 09:35:15;;;;;;;16.90;3.75;;;;;;;8.49;57.65;102868.28;3608307;39;20406;-65
2022/01/30 09:37:41;;;;;;;19.25;4.05;;;;;;;8.51;57.22;102869.16;3603308;39;20067;-65
2022/01/30 09:40:08;;;;;;;21.92;4.15;;;;;;;8.53;57.00;102872.69;3606669;39;20054;-66
2022/01/30 09:42:35;;;;;;;24.92;4.55;;;;;;;8.62;56.98;102882.31;3607469;39;20322;-66
2022/01/30 09:45:04;;;;;;;20.02;4.43;;;;;;;8.57;56.08;102886.91;3599307;39;20103;-66
2022/01/30 09:47:31;;;;;;;21.48;4.00;;;;;;;8.33;56.03;102848.06;3601360;39;20059;-66
2022/01/30 09:50:00;;;;;;;21.95;4.57;;;;;;;8.54;56.86;102890.53;3603966;39;20047;-66
2022/01/30 09:52:26;;;;;;;21.58;4.43;;;;;;;8.67;56.12;102890.28;3603140;39;20378;-66
2022/01/30 09:54:52;;;;;;;18.85;3.40;;;;;;;8.44;55.63;102835.38;3606147;39;20056;-65
2022/01/30 09:57:18;;;;;;;19.95;4.07;;;;;;;8.66;55.46;102883.16;3604023;39;20051;-66
2022/01/30 09:59:44;;;;;;;27.10;4.20;;;;;;;8.73;55.55;102895.53;3605168;39;20511;-66
2022/01/30 10:02:09;;;;;;;22.75;4.95;;;;;;;8.77;55.20;102884.69;3607066;39;20044;-65
2022/01/30 10:04:38;;;;;;;21.50;4.43;;;;;;;8.84;54.13;102893.50;3605760;39;20387;-65
2022/01/30 10:07:15;;;;;;;15.80;3.58;;;;;;;8.77;54.05;102891.88;3606222;39;20282;-65
2022/01/30 10:09:48;;;;;;;26.75;7.55;;;;;;;8.77;54.94;102897.22;3605607;39;20097;-67
2022/01/30 10:12:20;;;;;;;46.17;31.23;;;;;;;8.96;54.76;102911.13;3606934;39;20051;-66
2022/01/30 10:14:59;;;;;;;31.90;16.67;;;;;;;9.03;53.69;102892.16;3603353;39;20518;-66
2022/01/30 10:17:35;;;;;;;27.05;6.55;;;;;;;9.33;52.82;102919.25;3603277;39;20329;-66
2022/01/30 10:20:15;;;;;;;25.88;5.88;;;;;;;9.46;52.76;102912.66;3600860;39;20051;-66
2022/01/30 10:22:51;;;;;;;28.92;7.30;;;;;;;9.65;52.82;102925.66;3603040;39;20048;-66
2022/01/30 10:26:09;;;;;;;24.05;6.30;;;;;;;9.88;52.63;102923.28;3603421;39;20069;-68
2022/01/30 10:28:37;;;;;;;24.48;6.85;;;;;;;9.98;51.92;102922.09;3601883;39;20424;-65
2022/01/30 10:31:09;;;;;;;24.17;6.20;;;;;;;9.87;52.47;102926.88;3600185;39;20039;-66
2022/01/30 10:33:51;;;;;;;26.15;5.57;;;;;;;9.66;53.18;102882.63;3608418;39;20047;-66
2022/01/30 10:36:30;;;;;;;25.67;6.13;;;;;;;10.07;52.68;102922.81;3600685;39;20571;-66
2022/01/30 10:39:18;;;;;;;21.48;5.90;;;;;;;9.80;52.44;102898.44;3604311;39;20047;-66
2022/01/30 10:41:52;;;;;;;25.92;8.10;;;;;;;9.93;52.53;102915.13;3603236;39;20656;-66
2022/01/30 10:44:19;;;;;;;30.92;5.03;;;;;;;10.02;52.79;102905.91;3603247;39;20066;-66
2022/01/30 10:46:51;;;;;;;21.05;4.28;;;;;;;10.05;52.52;102919.25;3600642;39;20055;-66
2022/01/30 10:49:21;;;;;;;23.23;4.75;;;;;;;10.34;52.10;102914.06;3601333;39;20063;-66
2022/01/30 10:51:58;;;;;;;23.27;5.13;;;;;;;10.58;51.31;102908.91;3599185;39;20070;-67
2022/01/30 10:54:29;;;;;;;41.13;13.82;;;;;;;10.77;50.55;102910.13;3597755;39;20052;-66
2022/01/30 10:57:13;;;;;;;30.95;9.52;;;;;;;10.81;49.93;102901.03;3591138;39;20056;-67
2022/01/30 10:59:43;;;;;;;31.80;10.25;;;;;;;10.69;49.98;102909.50;3598970;39;20305;-65
2022/01/30 11:02:21;;;;;;;34.08;12.52;;;;;;;10.57;50.46;102909.84;3590216;39;20378;-66
2022/01/30 11:04:49;;;;;;;28.30;7.53;;;;;;;10.50;50.67;102905.53;3595548;39;20067;-66
2022/01/30 11:07:20;;;;;;;25.48;5.00;;;;;;;10.60;49.72;102897.19;3602095;39;20047;-66
2022/01/30 11:10:19;;;;;;;24.15;5.68;;;;;;;10.47;50.14;102890.38;3601997;39;20052;-65
2022/01/30 11:12:57;;;;;;;26.08;5.60;;;;;;;10.07;49.71;102853.81;3595595;39;20047;-66
2022/01/30 11:17:59;;;;;;;25.35;6.07;;;;;;;10.26;50.97;102885.56;3602169;39;20039;-66
2022/01/30 11:20:32;;;;;;;23.13;5.93;;;;;;;10.25;49.85;102873.06;3602837;39;20057;-66
2022/01/30 11:23:02;;;;;;;23.02;6.07;;;;;;;10.15;49.69;102881.38;3598649;39;20051;-65
2022/01/30 11:25:33;;;;;;;26.88;4.93;;;;;;;10.32;50.29;102878.25;3602324;39;20051;-65
2022/01/30 11:28:04;;;;;;;27.10;5.35;;;;;;;10.23;50.63;102882.03;3599693;39;20060;-66
2022/01/30 11:30:33;;;;;;;20.98;4.43;;;;;;;10.30;50.38;102873.84;3602248;39;20054;-67
2022/01/30 11:33:00;;;;;;;26.10;5.03;;;;;;;10.42;50.12;102860.94;3603978;39;20059;-66
2022/01/30 11:35:28;;;;;;;23.27;4.82;;;;;;;10.52;49.33;102871.44;3603722;39;20077;-66
2022/01/30 11:37:54;;;;;;;25.27;4.60;;;;;;;10.51;46.59;102872.34;3603089;39;20366;-67
2022/01/30 11:40:21;;;;;;;21.02;4.57;;;;;;;10.58;48.57;102876.63;3602671;39;20047;-66
2022/01/30 11:42:49;;;;;;;19.20;3.80;;;;;;;10.58;48.75;102872.13;3593707;39;20067;-66
2022/01/30 11:45:27;;;;;;;19.50;4.32;;;;;;;10.50;48.79;102863.41;3603815;39;20095;-65
2022/01/30 11:48:00;;;;;;;20.23;4.10;;;;;;;10.40;48.66;102861.88;3603578;39;20060;-66
2022/01/30 11:50:33;;;;;;;22.67;5.10;;;;;;;10.34;47.71;102868.34;3603662;39;20139;-67
2022/01/30 11:53:05;;;;;;;19.65;4.45;;;;;;;10.18;47.81;102857.09;3603702;39;20265;-66
2022/01/30 11:56:00;;;;;;;24.20;4.72;;;;;;;10.11;48.43;102860.00;3602417;39;20059;-66
2022/01/30 11:58:54;;;;;;;19.95;4.53;;;;;;;10.50;48.42;102866.09;3601089;39;20063;-66
2022/01/30 12:01:26;;;;;;;21.58;4.07;;;;;;;10.59;48.25;102856.88;3602817;39;20047;-66
2022/01/30 12:04:03;;;;;;;22.42;4.05;;;;;;;10.57;47.09;102864.13;3602857;39;20092;-66
2022/01/30 12:06:38;;;;;;;26.55;4.50;;;;;;;10.74;47.12;102861.78;3597196;39;20050;-66
2022/01/30 12:09:26;;;;;;;18.35;4.05;;;;;;;11.28;46.25;102860.13;3598795;39;20128;-67
2022/01/30 12:11:54;;;;;;;21.08;5.57;;;;;;;11.77;45.40;102851.31;3598830;39;20048;-67
2022/01/30 12:14:19;;;;;;;32.40;11.15;;;;;;;11.86;44.45;102858.22;3598929;39;20059;-66
2022/01/30 12:16:51;;;;;;;38.90;11.18;;;;;;;11.57;45.26;102851.09;3597663;39;20067;-67
2022/01/30 12:19:40;;;;;;;52.78;20.42;;;;;;;11.30;45.38;102858.28;3600420;39;20051;-67